METAR Data
IDs: Format: Raw Decoded Include TAF

Data at: 1201 UTC 21 Apr 2021

PKWA 211140Z AUTO 06008KT 10SM CLR 27/23 A2990 RMK AO2 T02730232